Time;durP1;ratioP1;P1;durP2;ratioP2;P2;SDS_P1;SDS_P2;PMS_P1;PMS_P2;Temp;Humidity;BMP_temperature;BMP_pressure;BME280_temperature;BME280_humidity;BME280_pressure;Samples;Min_cycle;Max_cycle;Signal;HPM_P1;HPM_P2
2022/07/01 00:02:07;;;;;;;6.88;1.35;;;16.40;99.90;;;;;;5012644;28;20124;-64
2022/07/01 00:04:32;;;;;;;5.88;1.00;;;16.30;99.90;;;;;;5031128;28;20049;-64
2022/07/01 00:06:58;;;;;;;2.78;0.60;;;16.30;99.90;;;;;;5013985;28;20045;-64
2022/07/01 00:09:24;;;;;;;1.02;0.50;;;16.30;99.90;;;;;;5031439;28;20045;-64
2022/07/01 00:11:50;;;;;;;1.80;0.50;;;16.10;99.90;;;;;;5017252;28;20056;-64
2022/07/01 00:14:15;;;;;;;2.50;0.47;;;16.20;99.90;;;;;;5012518;28;20088;-64
2022/07/01 00:16:41;;;;;;;2.35;0.60;;;16.10;99.90;;;;;;5014953;28;20041;-64
2022/07/01 00:19:07;;;;;;;0.68;0.30;;;16.30;99.90;;;;;;5009324;28;20038;-64
2022/07/01 00:21:33;;;;;;;1.25;0.77;;;16.20;99.90;;;;;;5012668;28;20049;-64
2022/07/01 00:23:59;;;;;;;2.45;0.40;;;16.10;99.90;;;;;;5012444;28;20033;-64
2022/07/01 00:26:24;;;;;;;1.00;0.40;;;16.20;99.90;;;;;;5013940;28;20095;-64
2022/07/01 00:28:50;;;;;;;1.45;0.50;;;16.10;99.90;;;;;;4995650;28;20046;-64
2022/07/01 00:31:16;;;;;;;1.33;0.50;;;16.30;99.90;;;;;;5014245;28;20029;-64
2022/07/01 00:33:44;;;;;;;0.70;0.43;;;16.20;99.90;;;;;;5000802;28;20137;-64
2022/07/01 00:36:09;;;;;;;0.98;0.60;;;16.20;99.90;;;;;;5005648;28;20030;-64
2022/07/01 00:38:35;;;;;;;2.22;0.75;;;16.20;99.90;;;;;;5007111;28;20446;-64
2022/07/01 00:41:00;;;;;;;1.88;0.75;;;16.30;99.90;;;;;;5014398;28;20487;-64
2022/07/01 00:43:26;;;;;;;3.25;1.02;;;16.30;99.90;;;;;;5014699;28;20514;-64
2022/07/01 00:45:52;;;;;;;2.15;0.70;;;16.20;99.90;;;;;;5004470;28;20539;-64
2022/07/01 00:48:21;;;;;;;1.10;0.60;;;16.20;99.90;;;;;;5010468;28;20049;-64
2022/07/01 00:50:47;;;;;;;4.10;1.02;;;16.00;99.90;;;;;;5010673;28;20046;-64
2022/07/01 00:53:14;;;;;;;3.00;0.70;;;16.10;99.90;;;;;;5031543;28;20037;-64
2022/07/01 00:55:41;;;;;;;2.80;0.55;;;16.00;99.90;;;;;;5013763;28;20084;-64
2022/07/01 00:58:07;;;;;;;1.17;0.90;;;16.20;99.90;;;;;;5010028;28;20107;-64
2022/07/01 01:00:34;;;;;;;1.52;0.77;;;16.30;99.90;;;;;;5002732;28;20636;-64
2022/07/01 01:03:00;;;;;;;1.02;0.60;;;16.10;99.90;;;;;;5035310;28;20099;-64
2022/07/01 01:05:26;;;;;;;2.70;0.63;;;16.00;99.90;;;;;;5014127;28;20137;-64
2022/07/01 01:07:52;;;;;;;1.55;1.00;;;16.40;99.90;;;;;;5019873;28;20436;-64
2022/07/01 01:10:19;;;;;;;1.65;1.02;;;16.10;99.90;;;;;;4991268;28;20479;-64
2022/07/01 01:12:44;;;;;;;1.55;0.70;;;16.30;99.90;;;;;;5013050;28;20055;-64
2022/07/01 01:15:16;;;;;;;1.95;0.70;;;16.10;99.90;;;;;;5016602;28;20830;-64
2022/07/01 01:17:42;;;;;;;1.40;0.90;;;16.10;99.90;;;;;;4996811;28;20411;-64
2022/07/01 01:20:08;;;;;;;3.95;0.93;;;16.10;99.90;;;;;;5003262;28;20068;-64
2022/07/01 01:22:33;;;;;;;1.45;0.75;;;15.90;99.90;;;;;;5017260;28;20037;-64
2022/07/01 01:24:59;;;;;;;1.38;0.95;;;15.90;99.90;;;;;;5010171;28;20092;-64
2022/07/01 01:27:25;;;;;;;2.10;1.25;;;16.00;99.90;;;;;;5007789;28;20033;-64
2022/07/01 01:29:51;;;;;;;3.88;1.10;;;;;;;;;;4998917;28;20048;-64
2022/07/01 01:32:16;;;;;;;3.95;1.30;;;15.90;99.90;;;;;;5022478;28;20038;-64
2022/07/01 01:34:42;;;;;;;2.65;1.23;;;16.00;99.90;;;;;;5003853;28;20037;-64
2022/07/01 01:37:09;;;;;;;1.65;1.02;;;15.90;99.90;;;;;;5030606;28;20091;-64
2022/07/01 01:39:37;;;;;;;3.25;1.10;;;16.00;99.90;;;;;;5029743;28;20095;-64
2022/07/01 01:42:04;;;;;;;5.30;1.60;;;15.90;99.90;;;;;;4998108;28;20092;-64
2022/07/01 01:44:30;;;;;;;2.40;1.25;;;16.00;99.90;;;;;;5015457;28;20488;-64
2022/07/01 01:46:55;;;;;;;1.92;1.00;;;16.20;99.90;;;;;;5015551;28;20038;-64
2022/07/01 01:49:21;;;;;;;1.50;1.10;;;16.00;99.90;;;;;;5022232;28;20479;-63
2022/07/01 01:51:46;;;;;;;2.42;1.20;;;16.10;99.90;;;;;;5019306;28;20417;-64
2022/07/01 01:54:12;;;;;;;2.60;1.10;;;15.90;99.90;;;;;;5016683;28;20100;-64
2022/07/01 01:56:38;;;;;;;2.47;1.50;;;15.80;99.90;;;;;;5023435;28;20046;-64
2022/07/01 01:59:04;;;;;;;2.55;1.63;;;15.90;99.90;;;;;;5016732;28;20049;-64
2022/07/01 02:01:30;;;;;;;3.08;1.60;;;15.90;99.90;;;;;;5027184;28;20545;-65
2022/07/01 02:03:56;;;;;;;2.42;1.60;;;15.90;99.90;;;;;;5000876;28;20144;-64
2022/07/01 02:06:22;;;;;;;4.47;1.50;;;15.70;99.90;;;;;;5027061;28;20073;-64
2022/07/01 02:08:48;;;;;;;3.78;1.52;;;15.60;99.90;;;;;;4996282;28;20084;-64
2022/07/01 02:11:14;;;;;;;4.85;1.30;;;15.70;99.90;;;;;;5019414;28;20034;-64
2022/07/01 02:13:40;;;;;;;2.58;1.65;;;15.70;99.90;;;;;;5022488;28;20072;-63
2022/07/01 02:16:05;;;;;;;3.03;1.75;;;15.60;99.90;;;;;;4999105;28;20060;-64
2022/07/01 02:18:32;;;;;;;3.22;1.40;;;15.60;99.90;;;;;;4997106;28;20503;-64
2022/07/01 02:20:58;;;;;;;2.35;1.65;;;15.60;99.90;;;;;;4994578;28;20037;-64
2022/07/01 02:23:24;;;;;;;2.75;2.05;;;15.60;99.90;;;;;;5004179;28;20041;-64
2022/07/01 02:25:50;;;;;;;3.58;1.73;;;15.40;99.90;;;;;;5002993;28;20506;-64
2022/07/01 02:28:16;;;;;;;4.50;2.00;;;15.40;99.90;;;;;;5016352;28;20043;-64
2022/07/01 02:30:42;;;;;;;4.78;2.45;;;15.60;99.90;;;;;;5012710;28;20125;-63
2022/07/01 02:33:08;;;;;;;5.25;2.70;;;15.40;99.90;;;;;;4996765;28;20073;-64
2022/07/01 02:35:36;;;;;;;6.05;2.05;;;15.30;99.90;;;;;;5008701;28;20470;-64
2022/07/01 02:38:02;;;;;;;5.28;2.42;;;15.40;99.90;;;;;;5015551;28;20116;-64
2022/07/01 02:40:28;;;;;;;3.33;2.40;;;15.30;99.90;;;;;;5015873;28;20041;-64
2022/07/01 02:42:54;;;;;;;3.88;2.30;;;15.30;99.90;;;;;;5015421;28;20099;-64
2022/07/01 02:45:19;;;;;;;5.10;2.75;;;15.30;99.90;;;;;;5031737;28;20407;-64
2022/07/01 02:47:45;;;;;;;4.43;2.92;;;;;;;;;;5020240;28;20450;-64
2022/07/01 02:50:12;;;;;;;3.25;2.28;;;15.20;99.90;;;;;;5013448;28;20066;-64
2022/07/01 02:52:40;;;;;;;6.57;2.70;;;15.40;99.90;;;;;;4996269;28;20127;-64
2022/07/01 02:55:08;;;;;;;5.68;2.75;;;15.20;99.90;;;;;;5027525;28;20474;-64
2022/07/01 02:57:33;;;;;;;3.85;2.75;;;15.30;99.90;;;;;;4995693;28;20042;-64
2022/07/01 03:00:00;;;;;;;4.15;2.53;;;;;;;;;;5027580;28;20044;-64
2022/07/01 03:02:25;;;;;;;3.85;2.90;;;15.30;99.90;;;;;;4987775;28;20512;-64
2022/07/01 03:04:52;;;;;;;3.25;2.55;;;15.20;99.90;;;;;;5031333;28;20045;-64
2022/07/01 03:07:19;;;;;;;4.07;2.85;;;15.20;99.90;;;;;;5009088;28;20049;-64
2022/07/01 03:09:45;;;;;;;5.20;2.83;;;15.10;99.90;;;;;;4997656;28;20045;-64
2022/07/01 03:12:28;;;;;;;5.72;3.15;;;15.10;99.90;;;;;;4997818;28;20084;-64
2022/07/01 03:14:59;;;;;;;5.40;3.67;;;15.00;99.90;;;;;;5022744;28;20037;-64
2022/07/01 03:17:26;;;;;;;7.35;4.22;;;15.20;99.90;;;;;;5013475;28;20034;-64
2022/07/01 03:19:53;;;;;;;6.93;4.30;;;15.10;99.90;;;;;;5013693;28;20079;-64
2022/07/01 03:22:20;;;;;;;5.32;4.55;;;15.00;99.90;;;;;;5002228;28;20077;-64
2022/07/01 03:24:47;;;;;;;7.65;4.72;;;15.10;99.90;;;;;;5012570;28;20034;-64
2022/07/01 03:27:13;;;;;;;8.00;5.30;;;14.90;99.90;;;;;;5015428;28;20055;-64
2022/07/01 03:29:38;;;;;;;9.40;5.97;;;14.90;99.90;;;;;;5019024;28;20120;-64
2022/07/01 03:32:04;;;;;;;7.90;6.07;;;15.00;99.90;;;;;;5014998;28;20474;-64
2022/07/01 03:34:30;;;;;;;10.05;6.88;;;15.00;99.90;;;;;;5029639;28;20040;-64
2022/07/01 03:36:55;;;;;;;10.80;7.93;;;14.90;99.90;;;;;;5023000;28;20033;-64
2022/07/01 03:39:21;;;;;;;16.23;8.65;;;15.10;99.90;;;;;;5000867;28;20129;-64
2022/07/01 03:41:49;;;;;;;13.27;8.60;;;15.10;99.90;;;;;;4996240;28;20038;-64
2022/07/01 03:44:15;;;;;;;12.95;8.93;;;14.90;99.90;;;;;;5007018;28;20049;-63
2022/07/01 03:46:40;;;;;;;15.90;10.00;;;15.00;99.90;;;;;;4998136;28;20034;-64
2022/07/01 03:49:07;;;;;;;16.10;10.73;;;15.10;99.90;;;;;;5025083;28;20048;-64
2022/07/01 03:51:33;;;;;;;18.67;11.73;;;15.10;99.90;;;;;;4999187;28;20046;-64
2022/07/01 03:56:43;;;;;;;18.08;12.18;;;;;;;;;;5001900;28;20042;-64
2022/07/01 03:59:08;;;;;;;17.85;12.93;;;14.80;99.90;;;;;;4997672;28;20056;-64
2022/07/01 04:01:34;;;;;;;25.45;15.07;;;15.20;99.90;;;;;;5014041;28;20042;-65
2022/07/01 04:04:00;;;;;;;25.00;15.15;;;14.90;99.90;;;;;;5013937;28;20042;-64
2022/07/01 04:06:26;;;;;;;25.40;15.68;;;14.60;99.90;;;;;;4998373;28;20093;-63
2022/07/01 04:08:52;;;;;;;26.65;16.60;;;15.00;99.90;;;;;;5013673;28;20113;-64
2022/07/01 04:11:18;;;;;;;23.75;16.42;;;14.90;99.90;;;;;;4995006;28;20544;-64
2022/07/01 04:13:49;;;;;;;28.02;17.45;;;;;;;;;;4999053;28;20038;-64
2022/07/01 04:16:19;;;;;;;27.63;17.13;;;15.00;99.90;;;;;;5018459;28;20034;-64
2022/07/01 04:18:49;;;;;;;32.47;17.58;;;15.00;99.90;;;;;;4991186;28;20116;-64
2022/07/01 04:23:58;;;;;;;28.42;18.80;;;14.90;99.90;;;;;;5000360;28;20049;-62
2022/07/01 04:26:24;;;;;;;29.27;19.25;;;14.90;99.90;;;;;;5027318;28;20510;-63
2022/07/01 04:28:51;;;;;;;33.28;20.77;;;;;;;;;;5016727;28;20450;-64
2022/07/01 04:31:20;;;;;;;27.65;18.30;;;15.00;99.90;;;;;;5006625;28;20034;-63
2022/07/01 04:33:49;;;;;;;31.48;21.60;;;14.80;99.90;;;;;;4994539;28;20050;-62
2022/07/01 04:36:15;;;;;;;29.20;19.30;;;14.80;99.90;;;;;;5002315;28;20071;-63
2022/07/01 04:38:41;;;;;;;32.47;20.58;;;14.70;99.90;;;;;;5031614;28;20045;-62
2022/07/01 04:43:51;;;;;;;32.05;20.52;;;;;;;;;;5021458;28;20037;-63
2022/07/01 04:46:17;;;;;;;27.95;21.13;;;;;;;;;;5028394;28;20038;-63
2022/07/01 04:48:43;;;;;;;33.20;21.88;;;;;;;;;;5018219;28;20803;-63
2022/07/01 04:51:09;;;;;;;37.15;21.67;;;;;;;;;;4976310;28;20057;-63
2022/07/01 04:53:35;;;;;;;34.95;22.02;;;;;;;;;;5026050;28;20037;-63
2022/07/01 04:56:01;;;;;;;34.35;22.63;;;14.80;99.90;;;;;;5025377;28;20053;-63
2022/07/01 04:58:27;;;;;;;38.58;22.73;;;;;;;;;;5009528;28;20060;-62
2022/07/01 05:00:53;;;;;;;35.17;22.73;;;;;;;;;;5009377;28;20140;-63
2022/07/01 05:03:19;;;;;;;33.33;23.42;;;;;;;;;;5008731;28;20072;-62
2022/07/01 05:05:45;;;;;;;38.47;24.45;;;;;;;;;;5010954;28;20410;-62
2022/07/01 05:08:11;;;;;;;38.65;24.40;;;14.90;99.90;;;;;;5015202;28;20095;-63
2022/07/01 05:10:36;;;;;;;37.13;24.00;;;14.80;99.90;;;;;;5001588;28;20037;-63
2022/07/01 05:13:02;;;;;;;39.22;24.02;;;14.90;99.90;;;;;;5030110;28;20045;-63
2022/07/01 05:15:28;;;;;;;37.78;24.48;;;14.90;99.90;;;;;;5028872;28;20049;-63
2022/07/01 05:23:22;;;;;;;38.08;23.98;;;14.90;99.90;;;;;;5028305;28;20128;-63
2022/07/01 05:25:47;;;;;;;39.50;25.05;;;14.80;99.90;;;;;;5026719;28;20440;-63
2022/07/01 05:28:13;;;;;;;40.67;24.75;;;14.90;99.90;;;;;;5026023;28;20046;-62
2022/07/01 05:30:39;;;;;;;41.03;24.05;;;14.80;99.90;;;;;;5020492;28;20037;-63
2022/07/01 05:33:05;;;;;;;39.75;24.63;;;14.80;99.90;;;;;;5019282;28;20038;-63
2022/07/01 05:35:31;;;;;;;37.63;24.30;;;14.80;99.90;;;;;;5025375;28;20140;-63
2022/07/01 05:37:56;;;;;;;35.15;23.20;;;14.90;99.90;;;;;;5015226;28;20037;-63
2022/07/01 05:40:22;;;;;;;40.28;26.52;;;14.80;99.90;;;;;;5021235;28;20526;-63
2022/07/01 05:42:48;;;;;;;39.47;26.08;;;14.80;99.90;;;;;;5005711;28;20060;-63
2022/07/01 05:45:14;;;;;;;44.42;25.48;;;;;;;;;;5024758;28;20056;-63
2022/07/01 05:47:39;;;;;;;32.65;23.73;;;14.90;99.90;;;;;;5025709;28;20040;-64
2022/07/01 05:50:05;;;;;;;33.60;25.08;;;14.90;99.90;;;;;;5024110;28;20496;-64
2022/07/01 05:52:31;;;;;;;38.20;23.85;;;14.80;99.90;;;;;;5009117;28;20042;-63
2022/07/01 05:54:57;;;;;;;32.80;24.30;;;15.00;99.90;;;;;;5024373;28;20403;-63
2022/07/01 05:57:22;;;;;;;32.55;22.90;;;15.00;99.90;;;;;;5023289;28;20492;-63
2022/07/01 05:59:48;;;;;;;38.58;24.38;;;14.90;99.90;;;;;;5024234;28;20045;-64
2022/07/01 06:02:13;;;;;;;34.78;23.60;;;14.90;99.90;;;;;;5020526;28;20062;-64
2022/07/01 06:04:39;;;;;;;35.10;22.70;;;14.90;99.90;;;;;;5025452;28;20034;-64
2022/07/01 06:07:05;;;;;;;31.60;22.90;;;14.90;99.90;;;;;;5030408;28;20123;-64
2022/07/01 06:09:30;;;;;;;32.13;22.17;;;15.00;99.90;;;;;;5027682;28;20038;-64
2022/07/01 06:11:56;;;;;;;31.50;21.85;;;14.90;99.90;;;;;;5026834;28;20030;-64
2022/07/01 06:14:21;;;;;;;29.80;22.45;;;15.00;99.90;;;;;;5022348;28;20049;-64
2022/07/01 06:16:47;;;;;;;34.05;22.17;;;14.90;99.90;;;;;;5009710;28;20048;-64
2022/07/01 06:19:12;;;;;;;34.63;24.08;;;14.90;99.90;;;;;;5007275;28;20453;-65
2022/07/01 06:21:38;;;;;;;33.00;21.67;;;15.00;99.90;;;;;;5011807;28;20049;-64
2022/07/01 06:24:04;;;;;;;35.88;22.58;;;14.90;99.90;;;;;;5022357;28;20091;-64
2022/07/01 06:26:30;;;;;;;32.80;21.95;;;15.00;99.90;;;;;;5006575;28;20030;-64
2022/07/01 06:28:55;;;;;;;30.73;21.15;;;14.90;99.90;;;;;;5024883;28;20041;-64
2022/07/01 06:31:23;;;;;;;31.00;21.88;;;;;;;;;;5010633;28;20056;-64
2022/07/01 06:33:49;;;;;;;32.10;21.77;;;;;;;;;;5008594;28;20095;-65
2022/07/01 06:36:16;;;;;;;32.35;21.70;;;15.00;99.90;;;;;;5009411;28;20214;-65
2022/07/01 06:38:41;;;;;;;28.88;20.27;;;14.90;99.90;;;;;;5009562;28;20057;-64
2022/07/01 06:43:51;;;;;;;28.73;21.25;;;15.10;99.90;;;;;;5009441;28;20085;-65
2022/07/01 06:46:17;;;;;;;31.88;21.63;;;15.00;99.90;;;;;;5008644;28;20124;-64
2022/07/01 06:48:42;;;;;;;30.38;21.95;;;15.10;99.90;;;;;;5009158;28;20422;-65
2022/07/01 06:51:08;;;;;;;32.05;22.15;;;15.20;99.90;;;;;;5008083;28;20073;-63
2022/07/01 06:53:34;;;;;;;31.77;21.67;;;;;;;;;;5008580;28;20091;-64
2022/07/01 06:56:00;;;;;;;33.17;21.20;;;15.10;99.90;;;;;;5007871;28;21565;-64
2022/07/01 06:58:25;;;;;;;29.65;21.05;;;15.20;99.90;;;;;;4991001;28;20053;-64
2022/07/01 07:00:51;;;;;;;26.83;19.75;;;;;;;;;;4990812;28;20076;-64
2022/07/01 07:03:17;;;;;;;30.70;21.65;;;;;;;;;;5008290;28;20065;-63
2022/07/01 07:05:43;;;;;;;32.10;21.25;;;15.30;99.90;;;;;;5010112;28;20671;-62
2022/07/01 07:08:08;;;;;;;31.65;21.35;;;15.30;99.90;;;;;;4990611;28;20049;-63
2022/07/01 07:10:34;;;;;;;28.15;19.15;;;15.30;99.90;;;;;;5008155;28;20068;-63
2022/07/01 07:12:59;;;;;;;30.48;20.20;;;15.30;99.90;;;;;;4990284;28;20120;-62
2022/07/01 07:15:25;;;;;;;30.15;20.75;;;;;;;;;;4990692;28;20045;-63
2022/07/01 07:17:52;;;;;;;27.90;19.90;;;;;;;;;;5007744;28;20049;-62
2022/07/01 07:20:17;;;;;;;28.77;20.65;;;15.40;99.90;;;;;;5007109;28;20057;-62
2022/07/01 07:22:43;;;;;;;28.63;19.30;;;;;;;;;;4990185;28;20045;-63
2022/07/01 07:25:09;;;;;;;23.48;19.98;;;15.60;99.90;;;;;;4989792;28;20053;-62
2022/07/01 07:27:35;;;;;;;27.90;20.70;;;;;;;;;;4990208;28;20396;-63
2022/07/01 07:30:03;;;;;;;25.48;20.50;;;15.50;99.90;;;;;;4990099;28;20049;-62
2022/07/01 07:32:28;;;;;;;31.88;20.10;;;15.60;99.90;;;;;;4990221;28;20048;-62
2022/07/01 07:34:54;;;;;;;21.80;17.92;;;;;;;;;;5008447;28;20045;-62
2022/07/01 07:37:20;;;;;;;25.25;20.02;;;15.90;99.90;;;;;;5010520;28;20045;-63
2022/07/01 07:39:46;;;;;;;27.50;19.08;;;;;;;;;;5008769;28;20065;-62
2022/07/01 07:42:12;;;;;;;28.58;19.25;;;15.90;99.90;;;;;;5007550;28;20041;-62
2022/07/01 07:44:38;;;;;;;23.17;19.38;;;;;;;;;;5007242;28;20506;-63
2022/07/01 07:47:03;;;;;;;29.20;18.35;;;16.10;99.90;;;;;;5004308;28;20741;-62
2022/07/01 07:49:29;;;;;;;31.05;19.42;;;16.00;99.90;;;;;;5007459;28;20049;-62
2022/07/01 07:51:54;;;;;;;25.30;19.45;;;16.20;99.90;;;;;;5006801;28;20670;-63
2022/07/01 07:54:20;;;;;;;24.35;19.98;;;16.40;99.90;;;;;;4989688;28;20494;-63
2022/07/01 07:56:46;;;;;;;24.02;17.30;;;16.40;99.90;;;;;;5005915;28;20063;-63
2022/07/01 07:59:12;;;;;;;28.23;17.95;;;16.60;99.90;;;;;;5006968;28;20048;-63
2022/07/01 08:01:37;;;;;;;18.52;15.25;;;17.00;99.90;;;;;;5005504;28;20415;-62
2022/07/01 08:04:03;;;;;;;28.05;17.23;;;17.00;99.90;;;;;;5007990;28;20077;-62
2022/07/01 08:06:29;;;;;;;24.95;15.90;;;16.70;99.90;;;;;;5006382;28;20132;-63
2022/07/01 08:08:56;;;;;;;22.27;16.10;;;16.60;99.90;;;;;;5006658;28;20075;-63
2022/07/01 08:11:23;;;;;;;16.88;13.07;;;16.80;99.90;;;;;;5006382;28;20045;-62
2022/07/01 08:13:49;;;;;;;23.65;13.65;;;16.60;99.90;;;;;;4989135;28;20503;-63
2022/07/01 08:16:14;;;;;;;16.02;12.48;;;16.60;99.90;;;;;;4989858;28;20136;-62
2022/07/01 08:18:40;;;;;;;15.35;12.85;;;16.80;99.90;;;;;;4986857;28;20155;-62
2022/07/01 08:21:05;;;;;;;17.50;14.05;;;17.30;99.90;;;;;;5007250;28;20566;-61
2022/07/01 08:23:31;;;;;;;17.95;13.32;;;16.70;99.90;;;;;;4992179;28;20049;-61
2022/07/01 08:25:57;;;;;;;27.33;14.98;;;16.90;99.90;;;;;;4990904;28;20049;-62
2022/07/01 08:28:22;;;;;;;17.15;12.80;;;16.70;99.90;;;;;;5008117;28;20052;-62
2022/07/01 08:30:48;;;;;;;20.05;12.57;;;17.00;99.90;;;;;;4989234;28;20745;-62
2022/07/01 08:33:14;;;;;;;17.83;12.30;;;16.90;99.90;;;;;;5006910;28;20057;-64
2022/07/01 08:35:39;;;;;;;19.92;13.13;;;17.00;99.90;;;;;;4989254;28;20045;-62
2022/07/01 08:38:06;;;;;;;18.38;13.45;;;17.00;99.90;;;;;;5006909;28;20041;-62
2022/07/01 08:40:32;;;;;;;16.05;11.40;;;17.00;99.90;;;;;;5008401;28;20087;-61
2022/07/01 08:43:00;;;;;;;20.13;11.85;;;17.20;99.90;;;;;;5008068;28;20038;-62
2022/07/01 08:45:27;;;;;;;16.65;10.18;;;17.20;99.90;;;;;;4990859;28;20041;-62
2022/07/01 08:47:57;;;;;;;18.98;11.75;;;17.30;99.90;;;;;;4991009;28;20037;-62
2022/07/01 08:50:27;;;;;;;18.70;13.13;;;15.50;99.90;;;;;;5006426;28;20160;-63
2022/07/01 08:52:53;;;;;;;14.90;11.77;;;17.20;99.90;;;;;;5008665;28;20065;-61
2022/07/01 08:55:20;;;;;;;20.45;11.32;;;17.30;99.90;;;;;;5008564;28;20871;-63
2022/07/01 08:57:47;;;;;;;16.15;12.20;;;17.20;99.90;;;;;;5008122;28;20041;-62
2022/07/01 09:00:13;;;;;;;17.27;10.45;;;17.50;99.90;;;;;;4988984;28;20060;-62
2022/07/01 09:02:59;;;;;;;11.40;9.27;;;17.50;99.90;;;;;;5008446;28;20088;-62
2022/07/01 09:05:26;;;;;;;13.48;7.07;;;17.70;99.90;;;;;;5007610;28;20038;-62
2022/07/01 09:08:10;;;;;;;14.27;9.18;;;17.60;99.90;;;;;;5008548;28;20056;-61
2022/07/01 09:10:36;;;;;;;16.33;10.23;;;17.50;99.90;;;;;;4989129;28;20550;-62
2022/07/01 09:13:09;;;;;;;10.75;8.07;;;17.80;99.90;;;;;;5006903;28;20041;-62
2022/07/01 09:15:36;;;;;;;19.83;7.93;;;17.90;99.90;;;;;;5007523;28;20099;-61
2022/07/01 09:18:09;;;;;;;11.57;7.55;;;17.70;99.90;;;;;;5004970;28;20045;-62
2022/07/01 09:20:38;;;;;;;11.25;8.35;;;18.00;99.90;;;;;;5005908;28;20142;-62
2022/07/01 09:23:07;;;;;;;9.73;7.85;;;17.70;99.90;;;;;;4991479;28;20049;-61
2022/07/01 09:25:43;;;;;;;11.35;6.82;;;18.00;99.90;;;;;;5010154;28;20049;-61
2022/07/01 09:28:20;;;;;;;11.35;8.00;;;18.00;99.90;;;;;;5010178;28;20052;-61
2022/07/01 09:30:47;;;;;;;12.05;8.63;;;18.20;99.90;;;;;;5010799;28;20045;-62
2022/07/01 09:33:19;;;;;;;10.80;8.68;;;18.20;99.90;;;;;;5010650;28;20042;-62
2022/07/01 09:35:46;;;;;;;12.80;8.80;;;18.30;99.90;;;;;;4995389;28;20494;-62
2022/07/01 09:38:15;;;;;;;12.80;7.88;;;18.30;99.90;;;;;;5013441;28;20527;-61
2022/07/01 09:40:55;;;;;;;12.27;7.80;;;18.20;99.90;;;;;;5012651;28;20885;-62
2022/07/01 09:43:23;;;;;;;16.30;9.20;;;18.30;99.90;;;;;;4995976;28;20053;-62
2022/07/01 09:45:59;;;;;;;14.70;6.70;;;18.40;99.90;;;;;;5011859;28;20041;-63
2022/07/01 09:48:45;;;;;;;12.27;5.40;;;18.30;99.90;;;;;;5014640;28;20041;-62
2022/07/01 09:51:12;;;;;;;11.32;5.95;;;18.60;99.90;;;;;;4995220;28;20424;-62
2022/07/01 09:53:38;;;;;;;11.30;6.20;;;18.40;99.90;;;;;;4995468;28;20053;-62
2022/07/01 09:56:05;;;;;;;10.65;6.63;;;18.20;99.90;;;;;;5012759;28;20045;-62
2022/07/01 09:58:34;;;;;;;9.68;6.15;;;19.20;99.90;;;;;;4995952;28;20159;-61
2022/07/01 10:01:01;;;;;;;8.75;6.15;;;18.40;99.90;;;;;;4995151;28;20140;-62
2022/07/01 10:03:30;;;;;;;8.63;5.45;;;18.70;99.90;;;;;;5012517;28;20570;-62
2022/07/01 10:06:16;;;;;;;8.25;5.38;;;18.90;99.90;;;;;;4994898;28;20049;-63
2022/07/01 10:08:59;;;;;;;16.83;6.05;;;18.90;99.90;;;;;;4962893;28;20050;-63
2022/07/01 10:12:02;;;;;;;9.43;3.80;;;18.80;99.90;;;;;;4995992;28;20065;-61
2022/07/01 10:14:30;;;;;;;6.88;4.40;;;19.20;99.90;;;;;;4996696;28;20053;-62
2022/07/01 10:16:56;;;;;;;10.15;4.78;;;19.10;99.90;;;;;;5012396;28;20037;-61
2022/07/01 10:19:25;;;;;;;9.10;4.28;;;19.20;99.90;;;;;;4995258;28;20056;-62
2022/07/01 10:21:57;;;;;;;7.43;4.07;;;19.20;99.90;;;;;;5011949;28;20041;-62
2022/07/01 10:24:25;;;;;;;10.13;4.68;;;19.10;99.90;;;;;;5012870;28;20098;-63
2022/07/01 10:26:51;;;;;;;9.43;4.20;;;19.10;99.90;;;;;;4994878;28;20064;-62
2022/07/01 10:29:34;;;;;;;8.75;3.47;;;20.00;99.90;;;;;;5012152;28;20107;-62
2022/07/01 10:32:02;;;;;;;6.20;3.45;;;19.00;99.90;;;;;;5013350;28;21966;-62
2022/07/01 10:34:41;;;;;;;6.60;3.95;;;19.10;99.90;;;;;;4995137;28;20045;-62
2022/07/01 10:37:09;;;;;;;7.22;3.85;;;19.00;99.90;;;;;;4993966;28;20046;-63
2022/07/01 10:39:53;;;;;;;9.68;3.15;;;18.90;99.90;;;;;;5012453;28;20049;-63
2022/07/01 10:42:46;;;;;;;6.30;2.63;;;18.90;99.90;;;;;;5013640;28;20053;-62
2022/07/01 10:45:12;;;;;;;6.85;2.80;;;18.90;99.90;;;;;;5010893;28;20053;-62
2022/07/01 10:47:39;;;;;;;4.80;2.95;;;19.00;99.90;;;;;;5009366;28;20127;-62
2022/07/01 10:50:12;;;;;;;5.30;3.05;;;19.30;99.90;;;;;;5011259;28;20877;-62
2022/07/01 10:52:39;;;;;;;8.90;2.92;;;19.30;99.90;;;;;;4989672;28;20050;-63
2022/07/01 10:55:07;;;;;;;7.63;2.10;;;19.00;99.90;;;;;;4988308;28;20045;-62
2022/07/01 10:57:41;;;;;;;6.68;2.25;;;19.50;99.90;;;;;;5005654;28;20037;-61
2022/07/01 11:00:06;;;;;;;7.77;2.33;;;19.40;99.90;;;;;;5005680;28;20053;-61
2022/07/01 11:02:37;;;;;;;6.13;2.20;;;19.70;99.90;;;;;;4987866;28;20131;-62
2022/07/01 11:05:03;;;;;;;2.88;1.38;;;19.60;99.90;;;;;;5007012;28;20041;-62
2022/07/01 11:07:30;;;;;;;3.28;1.00;;;19.70;99.90;;;;;;5005861;28;20119;-61
2022/07/01 11:09:57;;;;;;;3.92;1.30;;;19.80;99.90;;;;;;5006829;28;20041;-62
2022/07/01 11:12:23;;;;;;;3.40;0.82;;;19.80;99.90;;;;;;5004641;28;20064;-61
2022/07/01 11:14:51;;;;;;;6.18;0.82;;;19.70;99.90;;;;;;4987908;28;20048;-62
2022/07/01 11:17:17;;;;;;;4.70;1.10;;;19.70;99.90;;;;;;4987162;28;20076;-61
2022/07/01 11:19:52;;;;;;;8.30;1.13;;;19.80;99.90;;;;;;5006055;28;20515;-62
2022/07/01 11:22:36;;;;;;;;;;;19.60;99.90;;;;;;5005997;28;20049;-61
2022/07/01 11:25:03;;;;;;;3.28;0.80;;;19.50;99.90;;;;;;4988257;28;19952;-62
2022/07/01 11:27:30;;;;;;;4.63;0.90;;;19.10;99.90;;;;;;5005021;28;20152;-62
2022/07/01 11:29:58;;;;;;;5.78;0.98;;;19.30;99.90;;;;;;5005029;28;20049;-62
2022/07/01 11:32:32;;;;;;;3.33;0.90;;;19.40;99.90;;;;;;4984670;28;20072;-62
2022/07/01 11:35:00;;;;;;;2.87;0.60;;;19.30;99.90;;;;;;5004543;28;20037;-62
2022/07/01 11:40:14;;;;;;;1.38;0.52;;;19.60;99.90;;;;;;5005277;28;20057;-62
2022/07/01 11:42:40;;;;;;;6.93;0.40;;;19.30;99.90;;;;;;5004503;28;20048;-61
2022/07/01 11:45:06;;;;;;;2.67;0.68;;;18.00;99.90;;;;;;4987391;28;20045;-62
2022/07/01 11:47:32;;;;;;;2.92;0.50;;;19.60;99.90;;;;;;4987187;28;20049;-62
2022/07/01 11:49:58;;;;;;;2.97;0.90;;;19.70;99.90;;;;;;5005162;28;20479;-62
2022/07/01 11:52:24;;;;;;;2.50;0.60;;;19.90;99.90;;;;;;5005058;28;20033;-62
2022/07/01 11:54:52;;;;;;;3.17;0.65;;;19.90;99.90;;;;;;5004294;28;20037;-62
2022/07/01 11:57:24;;;;;;;2.78;0.50;;;19.60;99.90;;;;;;4987468;28;20067;-62
2022/07/01 11:59:51;;;;;;;3.53;0.75;;;19.50;99.90;;;;;;4988733;28;20529;-62
2022/07/01 12:02:19;;;;;;;4.97;0.70;;;19.60;99.90;;;;;;5006823;28;20075;-62
2022/07/01 12:04:46;;;;;;;2.00;0.50;;;19.80;99.90;;;;;;5007668;28;20056;-62
2022/07/01 12:07:13;;;;;;;3.20;0.50;;;19.70;99.90;;;;;;5006629;28;20040;-62
2022/07/01 12:09:39;;;;;;;4.45;0.50;;;19.60;99.90;;;;;;5007615;28;20083;-62
2022/07/01 12:12:06;;;;;;;5.70;0.60;;;19.80;99.90;;;;;;4989560;28;20893;-62
2022/07/01 12:14:35;;;;;;;2.85;1.08;;;19.80;99.90;;;;;;4990758;28;20049;-62
2022/07/01 12:17:08;;;;;;;2.75;0.40;;;19.80;99.90;;;;;;4990754;28;20041;-63
2022/07/01 12:19:40;;;;;;;6.32;0.65;;;20.00;99.90;;;;;;4990486;28;20053;-62
2022/07/01 12:22:15;;;;;;;4.68;0.85;;;19.70;99.90;;;;;;5007872;28;20061;-62
2022/07/01 12:24:42;;;;;;;4.15;0.50;;;19.70;99.90;;;;;;5007063;28;20037;-62
2022/07/01 12:27:09;;;;;;;1.05;0.40;;;20.10;99.90;;;;;;5006975;28;20042;-62
2022/07/01 12:29:46;;;;;;;3.55;0.47;;;19.90;99.90;;;;;;4990568;28;20501;-62
2022/07/01 12:32:15;;;;;;;8.45;0.70;;;19.50;99.90;;;;;;5007156;28;20049;-62
2022/07/01 12:34:43;;;;;;;3.92;0.60;;;19.30;99.90;;;;;;4989559;28;20514;-62
2022/07/01 12:37:15;;;;;;;3.00;0.50;;;19.10;99.90;;;;;;4988002;28;20049;-62
2022/07/01 12:39:46;;;;;;;4.72;0.50;;;19.30;99.90;;;;;;5007385;28;20049;-62
2022/07/01 12:42:24;;;;;;;4.28;0.70;;;18.90;99.90;;;;;;4988840;28;20069;-63
2022/07/01 12:44:51;;;;;;;5.68;0.57;;;19.20;99.90;;;;;;4989273;28;20053;-62
2022/07/01 12:47:27;;;;;;;2.60;0.75;;;19.30;99.90;;;;;;5007148;28;20049;-63
2022/07/01 12:50:13;;;;;;;5.22;0.82;;;19.20;99.90;;;;;;5007636;28;20042;-62
2022/07/01 12:52:43;;;;;;;5.55;1.00;;;20.10;99.90;;;;;;4989939;28;21038;-62
2022/07/01 12:55:20;;;;;;;3.72;0.55;;;19.30;99.90;;;;;;4991781;28;20098;-62
2022/07/01 12:57:59;;;;;;;4.50;0.80;;;19.20;99.90;;;;;;5009545;28;20103;-62
2022/07/01 13:00:27;;;;;;;3.90;1.48;;;19.20;99.90;;;;;;4992547;28;20102;-62
2022/07/01 13:02:54;;;;;;;4.63;1.25;;;19.30;99.90;;;;;;5008449;28;20053;-63
2022/07/01 13:05:20;;;;;;;5.97;0.77;;;19.40;99.90;;;;;;4994172;28;20152;-62
2022/07/01 13:07:46;;;;;;;3.40;0.68;;;19.20;99.90;;;;;;5011176;28;20053;-61
2022/07/01 13:10:13;;;;;;;3.25;0.88;;;19.30;99.90;;;;;;5010261;28;20868;-62